createdAt,value
2022-08-25T00:01:59.295Z,101618.00
2022-08-25T00:04:26.673Z,101619.00
2022-08-25T00:06:58.260Z,101602.00
2022-08-25T00:09:27.832Z,101615.00
2022-08-25T00:11:54.839Z,101612.00
2022-08-25T00:14:23.478Z,101609.00
2022-08-25T00:16:50.046Z,101602.00
2022-08-25T00:19:18.939Z,101600.00
2022-08-25T00:21:45.700Z,101598.00
2022-08-25T00:24:13.313Z,101594.00
2022-08-25T00:26:41.118Z,101598.00
2022-08-25T00:29:08.065Z,101597.00
2022-08-25T00:31:38.585Z,101590.00
2022-08-25T00:34:07.646Z,101590.00
2022-08-25T00:36:34.285Z,101589.00
2022-08-25T00:39:00.784Z,101583.00
2022-08-25T00:41:27.314Z,101578.00
2022-08-25T00:43:56.808Z,101574.00
2022-08-25T00:46:25.607Z,101577.00
2022-08-25T00:48:55.698Z,101573.00
2022-08-25T00:51:27.614Z,101576.00
2022-08-25T00:53:54.152Z,101588.00
2022-08-25T00:56:21.393Z,101575.00
2022-08-25T00:58:49.126Z,101583.00
2022-08-25T01:01:15.620Z,101577.00
2022-08-25T01:03:42.131Z,101586.00
2022-08-25T01:06:10.211Z,101590.00
2022-08-25T01:08:37.028Z,101582.00
2022-08-25T01:11:06.062Z,101583.00
2022-08-25T01:13:35.430Z,101579.00
2022-08-25T01:16:02.463Z,101585.00
2022-08-25T01:18:29.676Z,101573.00
2022-08-25T01:20:57.289Z,101572.00
2022-08-25T01:23:24.216Z,101573.00
2022-08-25T01:25:59.593Z,101571.00
2022-08-25T01:28:26.058Z,101574.00
2022-08-25T01:30:52.932Z,101572.00
2022-08-25T01:33:19.465Z,101566.00
2022-08-25T01:35:46.375Z,101566.00
2022-08-25T01:38:13.301Z,101560.00
2022-08-25T01:40:40.283Z,101570.00
2022-08-25T01:43:06.753Z,101560.00
2022-08-25T01:45:36.397Z,101556.00
2022-08-25T01:48:03.477Z,101564.00
2022-08-25T01:50:30.027Z,101569.00
2022-08-25T01:53:00.629Z,101562.00
2022-08-25T01:55:27.124Z,101556.00
2022-08-25T01:57:53.865Z,101555.00
2022-08-25T02:00:21.284Z,101555.00
2022-08-25T02:02:52.201Z,101549.00
2022-08-25T02:05:23.478Z,101545.00
2022-08-25T02:07:50.118Z,101546.00
2022-08-25T02:10:16.561Z,101544.00
2022-08-25T02:12:43.019Z,101545.00
2022-08-25T02:15:09.780Z,101542.00
2022-08-25T02:17:36.808Z,101532.00
2022-08-25T02:20:07.287Z,101525.00
2022-08-25T02:22:33.767Z,101523.00
2022-08-25T02:25:00.322Z,101517.00
2022-08-25T02:27:26.789Z,101519.00
2022-08-25T02:29:53.309Z,101516.00
2022-08-25T02:32:19.763Z,101514.00
2022-08-25T02:34:46.379Z,101507.00
2022-08-25T02:37:12.883Z,101505.00
2022-08-25T02:39:39.649Z,101501.00
2022-08-25T02:42:06.495Z,101500.00
2022-08-25T02:44:34.025Z,101500.00
2022-08-25T02:47:00.485Z,101504.00
2022-08-25T02:49:26.928Z,101498.00
2022-08-25T02:51:54.583Z,101496.00
2022-08-25T02:54:21.175Z,101490.00
2022-08-25T02:56:48.545Z,101492.00
2022-08-25T02:59:15.094Z,101487.00
2022-08-25T03:01:41.630Z,101495.00
2022-08-25T03:04:08.117Z,101492.00
2022-08-25T03:06:34.601Z,101491.00
2022-08-25T03:09:01.517Z,101491.00
2022-08-25T03:11:28.135Z,101487.00
2022-08-25T03:13:56.455Z,101490.00
2022-08-25T03:16:23.849Z,101488.00
2022-08-25T03:19:02.716Z,101482.00
2022-08-25T03:21:29.292Z,101487.00
2022-08-25T03:23:56.674Z,101494.00
2022-08-25T03:26:41.889Z,101481.00
2022-08-25T03:29:09.019Z,101482.00
2022-08-25T03:31:35.670Z,101481.00
2022-08-25T03:34:02.271Z,101476.00
2022-08-25T03:36:29.026Z,101468.00
2022-08-25T03:38:55.637Z,101464.00
2022-08-25T03:41:29.038Z,101459.00
2022-08-25T03:43:56.271Z,101464.00
2022-08-25T03:46:27.940Z,101462.00
2022-08-25T03:48:54.935Z,101454.00
2022-08-25T03:51:21.357Z,101456.00
2022-08-25T03:53:48.027Z,101456.00
2022-08-25T03:56:14.509Z,101453.00
2022-08-25T03:58:40.981Z,101450.00
2022-08-25T04:01:10.196Z,101445.00
2022-08-25T04:03:36.878Z,101450.00
2022-08-25T04:06:05.263Z,101447.00
2022-08-25T04:08:31.713Z,101448.00
2022-08-25T04:10:58.309Z,101450.00
2022-08-25T04:13:24.828Z,101456.00
2022-08-25T04:15:51.334Z,101449.00
2022-08-25T04:18:17.848Z,101449.00
2022-08-25T04:20:46.674Z,101444.00
2022-08-25T04:23:13.491Z,101445.00
2022-08-25T04:25:43.647Z,101453.00
2022-08-25T04:28:12.794Z,101436.00
2022-08-25T04:30:41.935Z,101440.00
2022-08-25T04:33:08.384Z,101444.00
2022-08-25T04:35:35.056Z,101445.00
2022-08-25T04:38:02.752Z,101448.00
2022-08-25T04:40:29.410Z,101447.00
2022-08-25T04:42:55.989Z,101439.00
2022-08-25T04:45:22.634Z,101436.00
2022-08-25T04:47:54.314Z,101439.00
2022-08-25T04:50:21.418Z,101437.00
2022-08-25T04:52:47.943Z,101439.00
2022-08-25T04:55:14.392Z,101447.00
2022-08-25T04:57:40.850Z,101443.00
2022-08-25T05:00:08.183Z,101443.00
2022-08-25T05:02:34.738Z,101443.00
2022-08-25T05:05:03.510Z,101445.00
2022-08-25T05:07:30.064Z,101450.00
2022-08-25T05:09:56.507Z,101451.00
2022-08-25T05:12:22.978Z,101449.00
2022-08-25T05:14:51.841Z,101446.00
2022-08-25T05:17:19.146Z,101444.00
2022-08-25T05:19:48.443Z,101448.00
2022-08-25T05:22:14.879Z,101437.00
2022-08-25T05:24:41.326Z,101444.00
2022-08-25T05:27:07.798Z,101444.00
2022-08-25T05:29:34.421Z,101439.00
2022-08-25T05:32:00.962Z,101428.00
2022-08-25T05:34:27.480Z,101440.00
2022-08-25T05:36:54.597Z,101432.00
2022-08-25T05:39:21.127Z,101432.00
2022-08-25T05:41:47.601Z,101437.00
2022-08-25T05:44:17.941Z,101432.00
2022-08-25T05:46:47.289Z,101432.00
2022-08-25T05:49:13.724Z,101425.00
2022-08-25T05:51:40.276Z,101430.00
2022-08-25T05:54:06.747Z,101435.00
2022-08-25T05:56:33.210Z,101425.00
2022-08-25T05:58:59.675Z,101424.00
2022-08-25T06:01:45.778Z,101415.00
2022-08-25T06:04:12.850Z,101426.00
2022-08-25T06:06:39.941Z,101423.00
2022-08-25T06:09:08.761Z,101423.00
2022-08-25T06:11:36.472Z,101428.00
2022-08-25T06:14:02.979Z,101426.00
2022-08-25T06:16:29.547Z,101426.00
2022-08-25T06:18:56.062Z,101429.00
2022-08-25T06:21:22.529Z,101427.00
2022-08-25T06:23:49.324Z,101436.00
2022-08-25T06:26:19.569Z,101442.00
2022-08-25T06:28:47.927Z,101435.00
2022-08-25T06:31:14.500Z,101437.00
2022-08-25T06:33:41.041Z,101434.00
2022-08-25T06:36:08.602Z,101438.00
2022-08-25T06:38:35.153Z,101440.00
2022-08-25T06:41:02.789Z,101441.00
2022-08-25T06:43:29.349Z,101441.00
2022-08-25T06:45:55.860Z,101433.00
2022-08-25T06:48:23.839Z,101438.00
2022-08-25T06:50:50.317Z,101447.00
2022-08-25T06:53:16.755Z,101444.00
2022-08-25T06:55:43.210Z,101442.00
2022-08-25T06:58:11.200Z,101444.00
2022-08-25T07:00:38.227Z,101444.00
2022-08-25T07:03:05.014Z,101442.00
2022-08-25T07:05:42.920Z,101440.00
2022-08-25T07:08:11.889Z,101446.00
2022-08-25T07:10:38.701Z,101441.00
2022-08-25T07:13:05.167Z,101441.00
2022-08-25T07:15:31.670Z,101439.00
2022-08-25T07:17:58.180Z,101433.00
2022-08-25T07:22:56.199Z,101436.00
2022-08-25T07:25:24.019Z,101439.00
2022-08-25T07:27:50.473Z,101442.00
2022-08-25T07:30:17.728Z,101444.00
2022-08-25T07:32:44.184Z,101442.00
2022-08-25T07:35:18.841Z,101440.00
2022-08-25T07:37:50.140Z,101440.00
2022-08-25T07:40:18.443Z,101437.00
2022-08-25T07:42:45.159Z,101449.00
2022-08-25T07:45:12.113Z,101446.00
2022-08-25T07:47:39.364Z,101451.00
2022-08-25T07:50:09.739Z,101436.00
2022-08-25T07:52:36.209Z,101439.00
2022-08-25T07:55:08.207Z,101433.00
2022-08-25T07:57:39.229Z,101442.00
2022-08-25T08:00:06.951Z,101442.00
2022-08-25T08:02:33.442Z,101442.00
2022-08-25T08:05:01.171Z,101449.00
2022-08-25T08:07:41.969Z,101446.00
2022-08-25T08:10:42.198Z,101453.00
2022-08-25T08:12:58.005Z,101447.00
2022-08-25T08:15:24.570Z,101440.00
2022-08-25T08:17:52.461Z,101446.00
2022-08-25T08:20:23.631Z,101446.00
2022-08-25T08:22:50.248Z,101452.00
2022-08-25T08:25:21.346Z,101455.00
2022-08-25T08:27:49.005Z,101474.00
2022-08-25T08:30:16.424Z,101490.00
2022-08-25T08:33:08.162Z,101475.00
2022-08-25T08:35:29.722Z,101485.00
2022-08-25T08:37:56.162Z,101500.00
2022-08-25T08:40:22.690Z,101493.00
2022-08-25T08:43:14.628Z,101457.00
2022-08-25T08:45:50.333Z,101489.00
2022-08-25T08:48:16.761Z,101490.00
2022-08-25T08:51:09.966Z,101480.00
2022-08-25T08:53:55.210Z,101495.00
2022-08-25T08:56:30.960Z,101485.00
2022-08-25T08:59:06.123Z,101495.00
2022-08-25T09:01:57.424Z,101494.00
2022-08-25T09:04:35.064Z,101494.00
2022-08-25T09:07:04.262Z,101486.00
2022-08-25T09:09:35.642Z,101493.00
2022-08-25T09:12:13.255Z,101494.00
2022-08-25T09:14:54.049Z,101498.00
2022-08-25T09:17:54.519Z,101491.00
2022-08-25T09:20:32.675Z,101505.00
2022-08-25T09:23:04.610Z,101515.00
2022-08-25T09:25:53.285Z,101518.00
2022-08-25T09:28:32.729Z,101502.00
2022-08-25T09:31:01.692Z,101512.00
2022-08-25T09:33:29.199Z,101514.00
2022-08-25T09:35:57.566Z,101521.00
2022-08-25T09:38:24.624Z,101510.00
2022-08-25T09:40:54.293Z,101513.00
2022-08-25T09:43:24.193Z,101509.00
2022-08-25T09:45:57.908Z,101517.00
2022-08-25T09:48:43.479Z,101517.00
2022-08-25T09:51:42.445Z,101515.00
2022-08-25T09:54:12.762Z,101522.00
2022-08-25T09:56:50.531Z,101527.00
2022-08-25T09:59:34.204Z,101529.00
2022-08-25T10:02:21.086Z,101529.00
2022-08-25T10:04:47.651Z,101530.00
2022-08-25T10:07:25.891Z,101539.00
2022-08-25T10:09:57.491Z,101529.00
2022-08-25T10:12:30.246Z,101538.00
2022-08-25T10:14:57.052Z,101539.00
2022-08-25T10:17:29.549Z,101530.00
2022-08-25T10:20:11.538Z,101542.00
2022-08-25T10:22:39.001Z,101547.00
2022-08-25T10:25:10.658Z,101554.00
2022-08-25T10:27:37.994Z,101553.00
2022-08-25T10:30:08.184Z,101561.00
2022-08-25T10:32:43.517Z,101565.00
2022-08-25T10:35:14.132Z,101559.00
2022-08-25T10:37:43.205Z,101563.00
2022-08-25T10:40:16.482Z,101556.00
2022-08-25T10:42:52.662Z,101552.00
2022-08-25T10:45:40.267Z,101554.00
2022-08-25T10:48:29.505Z,101544.00
2022-08-25T10:50:56.004Z,101542.00
2022-08-25T10:53:34.924Z,101546.00
2022-08-25T10:56:21.297Z,101553.00
2022-08-25T10:59:12.980Z,101547.00
2022-08-25T11:01:45.384Z,101551.00
2022-08-25T11:04:26.058Z,101549.00
2022-08-25T11:06:54.669Z,101548.00
2022-08-25T11:09:23.972Z,101546.00
2022-08-25T11:11:55.410Z,101543.00
2022-08-25T11:14:43.046Z,101544.00
2022-08-25T11:17:26.153Z,101548.00
2022-08-25T11:20:05.328Z,101539.00
2022-08-25T11:22:37.879Z,101536.00
2022-08-25T11:25:35.129Z,101544.00
2022-08-25T11:28:22.395Z,101544.00
2022-08-25T11:30:49.763Z,101539.00
2022-08-25T11:33:19.529Z,101535.00
2022-08-25T11:35:46.793Z,101538.00
2022-08-25T11:38:16.340Z,101545.00
2022-08-25T11:41:01.630Z,101547.00
2022-08-25T11:43:47.060Z,101540.00
2022-08-25T11:46:30.197Z,101540.00
2022-08-25T11:49:16.410Z,101550.00
2022-08-25T11:51:45.113Z,101539.00
2022-08-25T11:54:14.799Z,101543.00
2022-08-25T11:56:41.865Z,101555.00
2022-08-25T11:59:08.928Z,101556.00
2022-08-25T12:01:43.141Z,101568.00
2022-08-25T12:04:28.545Z,101573.00
2022-08-25T12:07:06.913Z,101572.00
2022-08-25T12:09:34.729Z,101567.00
2022-08-25T12:12:21.376Z,101578.00
2022-08-25T12:14:48.016Z,101578.00
2022-08-25T12:17:20.611Z,101572.00
2022-08-25T12:19:49.520Z,101573.00
2022-08-25T12:22:15.912Z,101574.00
2022-08-25T12:24:47.267Z,101586.00
2022-08-25T12:27:27.240Z,101590.00
2022-08-25T12:30:03.063Z,101591.00
2022-08-25T12:32:50.473Z,101594.00
2022-08-25T12:35:22.758Z,101598.00
2022-08-25T12:38:00.164Z,101613.00
2022-08-25T12:40:31.690Z,101614.00
2022-08-25T12:43:07.693Z,101619.00
2022-08-25T12:45:38.804Z,101622.00
2022-08-25T12:48:24.021Z,101621.00
2022-08-25T12:50:57.777Z,101619.00
2022-08-25T12:53:38.871Z,101624.00
2022-08-25T12:56:08.126Z,101625.00
2022-08-25T12:59:00.899Z,101622.00
2022-08-25T13:01:36.298Z,101626.00
2022-08-25T13:04:09.504Z,101621.00
2022-08-25T13:06:36.007Z,101614.00
2022-08-25T13:09:20.966Z,101613.00
2022-08-25T13:11:53.314Z,101619.00
2022-08-25T13:14:26.898Z,101623.00
2022-08-25T13:16:57.882Z,101622.00
2022-08-25T13:19:25.669Z,101626.00
2022-08-25T13:21:52.575Z,101627.00
2022-08-25T13:24:21.191Z,101624.00
2022-08-25T13:26:50.288Z,101630.00
2022-08-25T13:29:20.589Z,101616.00
2022-08-25T13:31:55.379Z,101620.00
2022-08-25T13:34:23.571Z,101614.00
2022-08-25T13:37:27.500Z,101607.00
2022-08-25T13:40:10.222Z,101594.00
2022-08-25T13:42:39.202Z,101605.00
2022-08-25T13:45:12.737Z,101601.00
2022-08-25T13:47:43.688Z,101599.00
2022-08-25T13:50:17.261Z,101603.00
2022-08-25T13:52:47.470Z,101601.00
2022-08-25T13:55:19.847Z,101594.00
2022-08-25T13:57:47.107Z,101593.00
2022-08-25T14:00:13.836Z,101585.00
2022-08-25T14:02:40.399Z,101592.00
2022-08-25T14:05:11.849Z,101586.00
2022-08-25T14:07:42.737Z,101586.00
2022-08-25T14:10:29.777Z,101587.00
2022-08-25T14:13:16.237Z,101584.00
2022-08-25T14:15:45.669Z,101581.00
2022-08-25T14:18:19.542Z,101584.00
2022-08-25T14:20:50.697Z,101569.00
2022-08-25T14:23:22.184Z,101570.00
2022-08-25T14:25:52.453Z,101567.00
2022-08-25T14:28:21.025Z,101574.00
2022-08-25T14:30:53.877Z,101577.00
2022-08-25T14:33:23.202Z,101570.00
2022-08-25T14:35:52.255Z,101574.00
2022-08-25T14:38:20.733Z,101574.00
2022-08-25T14:40:48.149Z,101577.00
2022-08-25T14:43:15.408Z,101573.00
2022-08-25T14:45:43.069Z,101568.00
2022-08-25T14:48:12.815Z,101568.00
2022-08-25T14:50:41.959Z,101572.00
2022-08-25T14:53:09.483Z,101570.00
2022-08-25T14:55:36.279Z,101572.00
2022-08-25T14:58:02.765Z,101568.00
2022-08-25T15:00:29.216Z,101572.00
2022-08-25T15:02:55.745Z,101563.00
2022-08-25T15:05:26.855Z,101556.00
2022-08-25T15:08:13.316Z,101559.00
2022-08-25T15:10:40.373Z,101549.00
2022-08-25T15:13:07.019Z,101562.00
2022-08-25T15:15:34.847Z,101565.00
2022-08-25T15:18:01.498Z,101564.00
2022-08-25T15:20:28.113Z,101558.00
2022-08-25T15:22:55.693Z,101555.00
2022-08-25T15:25:22.878Z,101548.00
2022-08-25T15:27:50.950Z,101543.00
2022-08-25T15:30:17.454Z,101550.00
2022-08-25T15:32:44.933Z,101548.00
2022-08-25T15:35:15.307Z,101549.00
2022-08-25T15:37:42.250Z,101551.00
2022-08-25T15:40:09.040Z,101555.00
2022-08-25T15:42:37.026Z,101566.00
2022-08-25T15:45:03.596Z,101555.00
2022-08-25T15:47:32.403Z,101561.00
2022-08-25T15:50:31.266Z,101566.00
2022-08-25T15:52:58.027Z,101573.00
2022-08-25T15:55:24.626Z,101569.00
2022-08-25T15:57:51.130Z,101575.00
2022-08-25T16:00:18.116Z,101570.00
2022-08-25T16:02:45.705Z,101575.00
2022-08-25T16:05:13.706Z,101575.00
2022-08-25T16:07:42.893Z,101569.00
2022-08-25T16:10:09.732Z,101565.00
2022-08-25T16:12:37.609Z,101568.00
2022-08-25T16:15:04.236Z,101573.00
2022-08-25T16:17:30.711Z,101565.00
2022-08-25T16:19:57.275Z,101574.00
2022-08-25T16:22:23.711Z,101572.00
2022-08-25T16:24:52.530Z,101584.00
2022-08-25T16:27:19.851Z,101583.00
2022-08-25T16:29:47.300Z,101581.00
2022-08-25T16:32:14.522Z,101591.00
2022-08-25T16:34:41.601Z,101583.00
2022-08-25T16:37:08.649Z,101585.00
2022-08-25T16:39:35.828Z,101590.00
2022-08-25T16:42:02.319Z,101582.00
2022-08-25T16:44:28.868Z,101581.00
2022-08-25T16:46:56.014Z,101595.00
2022-08-25T16:49:24.550Z,101593.00
2022-08-25T16:51:57.714Z,101589.00
2022-08-25T16:54:43.456Z,101585.00
2022-08-25T16:57:09.987Z,101600.00
2022-08-25T16:59:36.827Z,101609.00
2022-08-25T17:02:03.843Z,101601.00
2022-08-25T17:04:32.597Z,101598.00
2022-08-25T17:06:59.983Z,101605.00
2022-08-25T17:09:30.694Z,101605.00
2022-08-25T17:11:57.288Z,101619.00
2022-08-25T17:14:24.156Z,101615.00
2022-08-25T17:16:54.595Z,101616.00
2022-08-25T17:19:21.366Z,101627.00
2022-08-25T17:21:50.240Z,101623.00
2022-08-25T17:24:17.210Z,101627.00
2022-08-25T17:26:46.392Z,101628.00
2022-08-25T17:29:12.896Z,101627.00
2022-08-25T17:31:40.297Z,101616.00
2022-08-25T17:34:08.754Z,101605.00
2022-08-25T17:36:35.457Z,101597.00
2022-08-25T17:39:02.920Z,101602.00
2022-08-25T17:41:30.094Z,101620.00
2022-08-25T17:43:58.843Z,101630.00
2022-08-25T17:46:25.633Z,101635.00
2022-08-25T17:48:52.302Z,101636.00
2022-08-25T17:51:18.869Z,101636.00
2022-08-25T17:53:45.377Z,101634.00
2022-08-25T17:56:15.623Z,101631.00
2022-08-25T17:58:42.610Z,101616.00
2022-08-25T18:01:15.109Z,101622.00
2022-08-25T18:03:43.047Z,101623.00
2022-08-25T18:06:09.687Z,101627.00
2022-08-25T18:08:42.594Z,101633.00
2022-08-25T18:11:09.758Z,101639.00
2022-08-25T18:13:36.311Z,101639.00
2022-08-25T18:16:02.947Z,101640.00
2022-08-25T18:18:31.629Z,101642.00
2022-08-25T18:20:58.068Z,101648.00
2022-08-25T18:23:26.251Z,101643.00
2022-08-25T18:25:53.250Z,101647.00
2022-08-25T18:28:27.586Z,101656.00
2022-08-25T18:30:54.837Z,101656.00
2022-08-25T18:33:22.985Z,101657.00
2022-08-25T18:35:49.564Z,101659.00
2022-08-25T18:38:48.230Z,101663.00
2022-08-25T18:41:14.809Z,101656.00
2022-08-25T18:43:41.382Z,101660.00
2022-08-25T18:46:08.226Z,101662.00
2022-08-25T18:48:36.766Z,101667.00
2022-08-25T18:51:04.131Z,101667.00
2022-08-25T18:53:49.764Z,101677.00
2022-08-25T18:56:18.078Z,101677.00
2022-08-25T18:58:45.561Z,101682.00
2022-08-25T19:01:13.818Z,101686.00
2022-08-25T19:03:40.473Z,101680.00
2022-08-25T19:06:09.366Z,101683.00
2022-08-25T19:08:36.541Z,101685.00
2022-08-25T19:11:03.024Z,101691.00
2022-08-25T19:13:29.568Z,101700.00
2022-08-25T19:15:56.173Z,101688.00
2022-08-25T19:18:26.165Z,101689.00
2022-08-25T19:20:55.913Z,101688.00
2022-08-25T19:23:22.438Z,101694.00
2022-08-25T19:25:48.927Z,101700.00
2022-08-25T19:28:16.397Z,101692.00
2022-08-25T19:30:50.166Z,101701.00
2022-08-25T19:33:42.168Z,101710.00
2022-08-25T19:36:06.343Z,101714.00
2022-08-25T19:38:36.109Z,101718.00
2022-08-25T19:41:14.089Z,101726.00
2022-08-25T19:43:56.038Z,101732.00
2022-08-25T19:46:25.385Z,101723.00
2022-08-25T19:48:51.906Z,101723.00
2022-08-25T19:51:21.968Z,101724.00
2022-08-25T19:53:54.334Z,101723.00
2022-08-25T19:56:21.427Z,101712.00
2022-08-25T19:58:47.899Z,101719.00
2022-08-25T20:01:16.573Z,101713.00
2022-08-25T20:03:44.877Z,101716.00
2022-08-25T20:06:11.351Z,101724.00
2022-08-25T20:08:37.787Z,101720.00
2022-08-25T20:11:04.565Z,101730.00
2022-08-25T20:13:31.068Z,101731.00
2022-08-25T20:15:58.770Z,101732.00
2022-08-25T20:18:25.580Z,101729.00
2022-08-25T20:20:52.606Z,101719.00
2022-08-25T20:23:37.548Z,101720.00
2022-08-25T20:26:05.158Z,101730.00
2022-08-25T20:28:31.621Z,101726.00
2022-08-25T20:30:58.147Z,101726.00
2022-08-25T20:33:24.653Z,101732.00
2022-08-25T20:35:52.954Z,101725.00
2022-08-25T20:38:19.966Z,101729.00
2022-08-25T20:40:46.422Z,101725.00
2022-08-25T20:43:15.334Z,101729.00
2022-08-25T20:45:42.116Z,101725.00
2022-08-25T20:48:09.553Z,101725.00
2022-08-25T20:50:38.382Z,101731.00
2022-08-25T20:53:10.185Z,101733.00
2022-08-25T20:55:42.362Z,101735.00
2022-08-25T20:58:09.116Z,101725.00
2022-08-25T21:00:36.160Z,101732.00
2022-08-25T21:03:02.696Z,101734.00
2022-08-25T21:05:29.615Z,101738.00
2022-08-25T21:07:56.074Z,101724.00
2022-08-25T21:10:23.374Z,101739.00
2022-08-25T21:12:53.220Z,101738.00
2022-08-25T21:15:20.415Z,101740.00
2022-08-25T21:17:54.331Z,101748.00
2022-08-25T21:20:21.767Z,101738.00
2022-08-25T21:22:48.180Z,101749.00
2022-08-25T21:25:17.361Z,101745.00
2022-08-25T21:27:43.832Z,101746.00
2022-08-25T21:30:10.755Z,101743.00
2022-08-25T21:32:37.765Z,101758.00
2022-08-25T21:35:07.797Z,101751.00
2022-08-25T21:37:34.569Z,101753.00
2022-08-25T21:40:01.367Z,101759.00
2022-08-25T21:42:28.727Z,101749.00
2022-08-25T21:44:55.177Z,101751.00
2022-08-25T21:47:23.366Z,101755.00
2022-08-25T21:49:50.224Z,101757.00
2022-08-25T21:52:17.263Z,101756.00
2022-08-25T21:54:44.413Z,101763.00
2022-08-25T21:57:11.202Z,101755.00
2022-08-25T21:59:40.478Z,101762.00
2022-08-25T22:02:08.852Z,101765.00
2022-08-25T22:04:35.852Z,101777.00
2022-08-25T22:07:02.833Z,101774.00
2022-08-25T22:09:29.513Z,101785.00
2022-08-25T22:11:56.198Z,101781.00
2022-08-25T22:14:23.813Z,101785.00
2022-08-25T22:16:52.760Z,101782.00
2022-08-25T22:19:19.320Z,101779.00
2022-08-25T22:21:45.802Z,101781.00
2022-08-25T22:24:12.384Z,101778.00
2022-08-25T22:26:39.173Z,101785.00
2022-08-25T22:29:06.563Z,101779.00
2022-08-25T22:31:33.603Z,101772.00
2022-08-25T22:34:00.635Z,101771.00
2022-08-25T22:36:30.961Z,101779.00
2022-08-25T22:38:57.809Z,101779.00
2022-08-25T22:41:25.918Z,101788.00
2022-08-25T22:43:55.409Z,101787.00
2022-08-25T22:46:22.458Z,101786.00
2022-08-25T22:48:50.352Z,101788.00
2022-08-25T22:51:19.962Z,101782.00
2022-08-25T22:53:47.166Z,101785.00
2022-08-25T22:56:14.670Z,101788.00
2022-08-25T22:58:43.830Z,101793.00
2022-08-25T23:01:19.490Z,101794.00
2022-08-25T23:03:46.026Z,101795.00
2022-08-25T23:06:24.004Z,101799.00
2022-08-25T23:08:51.899Z,101803.00
2022-08-25T23:11:20.343Z,101809.00
2022-08-25T23:13:46.977Z,101805.00
2022-08-25T23:16:13.690Z,101806.00
2022-08-25T23:18:43.737Z,101805.00
2022-08-25T23:21:29.559Z,101800.00
2022-08-25T23:24:01.823Z,101797.00
2022-08-25T23:26:29.405Z,101795.00
2022-08-25T23:28:55.881Z,101800.00
2022-08-25T23:31:22.397Z,101795.00
2022-08-25T23:33:50.871Z,101800.00
2022-08-25T23:36:17.562Z,101789.00
2022-08-25T23:38:45.194Z,101790.00
2022-08-25T23:41:19.796Z,101791.00
2022-08-25T23:43:47.930Z,101795.00
2022-08-25T23:46:16.463Z,101788.00
2022-08-25T23:48:43.011Z,101787.00
2022-08-25T23:51:09.697Z,101790.00
2022-08-25T23:53:36.687Z,101789.00
2022-08-25T23:56:05.668Z,101787.00
2022-08-25T23:58:32.491Z,101782.00
